Time;durP1;ratioP1;P1;durP2;ratioP2;P2;SDS_P1;SDS_P2;PMS_P1;PMS_P2;Temp;Humidity;BMP_temperature;BMP_pressure;BME280_temperature;BME280_humidity;BME280_pressure;Samples;Min_cycle;Max_cycle;Signal;HPM_P1;HPM_P2
2022/04/16 00:00:32;;;;;;;5.50;5.20;;;4.50;1.00;;;;;;6261668;28;20315;-56
2022/04/16 00:03:34;;;;;;;4.50;4.37;;;4.40;1.00;;;;;;6280622;28;20225;-56
2022/04/16 00:06:37;;;;;;;5.33;4.93;;;4.40;1.00;;;;;;6268677;28;20387;-57
2022/04/16 00:09:41;;;;;;;4.80;4.30;;;4.30;1.00;;;;;;6279523;28;20225;-50
2022/04/16 00:12:45;;;;;;;4.37;4.27;;;4.30;1.00;;;;;;6281052;28;20291;-57
2022/04/16 00:15:49;;;;;;;4.87;4.67;;;4.10;1.00;;;;;;6282015;28;20324;-57
2022/04/16 00:18:52;;;;;;;4.97;4.60;;;4.10;1.00;;;;;;6282469;28;20644;-57
2022/04/16 00:21:55;;;;;;;5.03;4.67;;;4.10;1.00;;;;;;6262142;28;20711;-57
2022/04/16 00:24:57;;;;;;;5.40;5.00;;;4.20;1.00;;;;;;6256938;28;20237;-56
2022/04/16 00:28:02;;;;;;;4.53;4.33;;;4.20;1.00;;;;;;6257282;28;20761;-56
2022/04/16 00:31:05;;;;;;;4.47;4.27;;;4.10;1.00;;;;;;6256463;28;20240;-56
2022/04/16 00:34:07;;;;;;;5.23;4.73;;;4.10;1.00;;;;;;6264763;28;20733;-56
2022/04/16 00:37:10;;;;;;;5.60;5.10;;;4.30;1.00;;;;;;6267780;28;20261;-57
2022/04/16 00:40:13;;;;;;;6.70;4.93;;;4.10;1.00;;;;;;6276116;28;20226;-57
2022/04/16 00:43:24;;;;;;;5.57;4.77;;;4.20;1.00;;;;;;6281729;28;20232;-56
2022/04/16 00:46:27;;;;;;;6.53;4.53;;;3.90;1.00;;;;;;6285011;28;20286;-55
2022/04/16 00:49:30;;;;;;;4.77;4.40;;;4.00;1.00;;;;;;6278041;28;20265;-55
2022/04/16 00:52:32;;;;;;;4.20;3.93;;;3.80;1.00;;;;;;6262119;28;20459;-57
2022/04/16 00:55:37;;;;;;;3.83;3.73;;;4.00;1.00;;;;;;6261184;28;20372;-57
2022/04/16 00:58:41;;;;;;;4.40;4.20;;;4.00;1.00;;;;;;6261752;28;20487;-57
2022/04/16 01:01:44;;;;;;;4.80;4.23;;;4.10;1.00;;;;;;6261951;28;20244;-59
2022/04/16 01:04:47;;;;;;;4.30;3.90;;;3.80;1.00;;;;;;6270556;28;20460;-56
2022/04/16 01:07:54;;;;;;;5.07;4.77;;;4.10;1.00;;;;;;6284738;28;20341;-53
2022/04/16 01:10:57;;;;;;;4.87;3.93;;;3.90;1.00;;;;;;6286279;28;20844;-58
2022/04/16 01:14:01;;;;;;;5.77;4.37;;;4.00;1.00;;;;;;6277824;28;20556;-56
2022/04/16 01:17:05;;;;;;;4.57;4.30;;;4.10;1.00;;;;;;6286024;28;20356;-56
2022/04/16 01:20:09;;;;;;;4.33;4.00;;;3.90;1.00;;;;;;6280415;28;20483;-56
2022/04/16 01:23:14;;;;;;;4.37;3.77;;;3.80;1.00;;;;;;6261084;28;20319;-55
2022/04/16 01:26:17;;;;;;;4.63;4.00;;;3.90;1.00;;;;;;6260882;28;20268;-56
2022/04/16 01:29:20;;;;;;;4.57;4.13;;;3.80;1.00;;;;;;6260338;28;20311;-56
2022/04/16 01:32:23;;;;;;;4.27;4.00;;;3.90;1.00;;;;;;6262921;28;20248;-55
2022/04/16 01:35:26;;;;;;;4.70;4.27;;;3.80;1.00;;;;;;6277980;28;20253;-56
2022/04/16 01:38:30;;;;;;;4.30;4.00;;;3.90;1.00;;;;;;6281489;28;20452;-55
2022/04/16 01:41:32;;;;;;;4.47;4.17;;;3.70;1.00;;;;;;6279978;28;25662;-57
2022/04/16 01:44:35;;;;;;;4.87;4.57;;;3.70;1.00;;;;;;6286209;28;20253;-56
2022/04/16 01:47:38;;;;;;;5.60;4.53;;;3.90;1.00;;;;;;6276547;28;20783;-56
2022/04/16 01:50:41;;;;;;;4.10;3.90;;;3.80;1.00;;;;;;6260670;28;20269;-56
2022/04/16 01:53:45;;;;;;;4.50;4.10;;;3.60;1.00;;;;;;6261137;28;20273;-56
2022/04/16 01:56:48;;;;;;;4.13;3.83;;;3.90;1.00;;;;;;6260829;28;20427;-55
2022/04/16 01:59:52;;;;;;;4.33;3.87;;;3.60;1.00;;;;;;6259707;28;20603;-56
2022/04/16 02:02:57;;;;;;;4.03;3.80;;;3.50;1.00;;;;;;6266444;28;20472;-57
2022/04/16 02:06:00;;;;;;;4.67;4.27;;;3.80;1.00;;;;;;6258742;28;20260;-52
2022/04/16 02:09:04;;;;;;;3.70;3.50;;;3.50;1.00;;;;;;6284119;28;20253;-56
2022/04/16 02:12:08;;;;;;;4.37;4.07;;;3.50;1.00;;;;;;6284447;28;20721;-56
2022/04/16 02:15:11;;;;;;;4.43;4.10;;;3.40;1.00;;;;;;6280711;28;20296;-56
2022/04/16 02:18:14;;;;;;;7.00;4.27;;;3.70;1.00;;;;;;6285229;28;20229;-56
2022/04/16 02:21:17;;;;;;;3.87;3.67;;;3.60;1.00;;;;;;6284536;28;20328;-57
2022/04/16 02:24:21;;;;;;;4.60;3.87;;;3.30;1.00;;;;;;6260426;28;20347;-56
2022/04/16 02:27:24;;;;;;;3.90;3.60;;;3.40;1.00;;;;;;6264074;28;20734;-57
2022/04/16 02:30:28;;;;;;;4.50;4.30;;;3.60;1.00;;;;;;6282708;28;20324;-55
2022/04/16 02:33:31;;;;;;;5.30;3.90;;;3.40;1.00;;;;;;6266294;28;20314;-55
2022/04/16 02:36:34;;;;;;;4.13;3.90;;;2.80;1.00;;;;;;6280912;28;20262;-55
2022/04/16 02:39:38;;;;;;;4.10;3.83;;;3.20;1.00;;;;;;6276244;28;20264;-56
2022/04/16 02:42:43;;;;;;;5.00;3.77;;;3.40;1.00;;;;;;6283780;28;20229;-57
2022/04/16 02:49:06;;;;;;;3.80;3.60;;;3.40;1.00;;;;;;6260920;28;20739;-57
2022/04/16 02:52:09;;;;;;;5.00;4.07;;;3.60;1.00;;;;;;6259586;28;20379;-56
2022/04/16 02:55:15;;;;;;;4.40;4.03;;;3.30;1.00;;;;;;6259005;28;20242;-56
2022/04/16 02:58:19;;;;;;;5.17;4.67;;;3.20;1.00;;;;;;6259261;28;20299;-57
2022/04/16 03:01:21;;;;;;;4.27;4.00;;;3.30;1.00;;;;;;6258770;28;20242;-57
2022/04/16 03:04:26;;;;;;;6.17;4.10;;;3.40;1.00;;;;;;6269042;28;20237;-55
2022/04/16 03:07:28;;;;;;;4.53;4.23;;;3.50;1.00;;;;;;6267462;28;20230;-55
2022/04/16 03:10:33;;;;;;;7.50;4.10;;;3.60;1.00;;;;;;6282543;28;20237;-56
2022/04/16 03:13:35;;;;;;;4.60;4.27;;;3.40;1.00;;;;;;6282614;28;20727;-56
2022/04/16 03:19:58;;;;;;;4.37;4.17;;;3.50;1.00;;;;;;6259404;28;20316;-56
2022/04/16 03:23:02;;;;;;;4.10;3.80;;;3.70;1.00;;;;;;6258816;28;20245;-57
2022/04/16 03:26:06;;;;;;;4.37;4.07;;;3.60;1.00;;;;;;6260917;28;20651;-57
2022/04/16 03:29:08;;;;;;;4.03;3.83;;;3.30;1.00;;;;;;6259141;28;20296;-57
2022/04/16 03:32:11;;;;;;;4.97;4.47;;;3.60;1.00;;;;;;6254413;28;20316;-55
2022/04/16 03:35:14;;;;;;;4.40;4.00;;;3.70;1.00;;;;;;6279122;28;20248;-56
2022/04/16 03:38:17;;;;;;;4.30;4.00;;;3.50;1.00;;;;;;6281332;28;20239;-55
2022/04/16 03:41:21;;;;;;;4.30;3.90;;;3.70;1.00;;;;;;6278673;28;20355;-56
2022/04/16 03:44:24;;;;;;;9.43;4.37;;;3.80;1.00;;;;;;6282154;28;20614;-55
2022/04/16 03:47:27;;;;;;;6.63;3.97;;;3.50;1.00;;;;;;6277472;28;20239;-56
2022/04/16 03:50:31;;;;;;;5.83;4.10;;;3.70;1.00;;;;;;6279523;28;20310;-57
2022/04/16 03:53:34;;;;;;;6.50;4.10;;;3.70;1.00;;;;;;6281644;28;20606;-56
2022/04/16 04:00:03;;;;;;;4.10;4.00;;;3.60;1.00;;;;;;6282118;28;20333;-55
2022/04/16 04:03:05;;;;;;;4.13;3.87;;;3.70;1.00;;;;;;6276161;28;20234;-56
2022/04/16 04:06:08;;;;;;;4.30;4.10;;;3.80;1.00;;;;;;6280885;28;20665;-56
2022/04/16 04:09:11;;;;;;;4.37;3.97;;;3.90;1.00;;;;;;6281928;28;20243;-56
2022/04/16 04:12:16;;;;;;;4.23;3.93;;;3.90;1.00;;;;;;6272798;28;20233;-57
2022/04/16 04:15:19;;;;;;;4.60;4.30;;;3.80;1.00;;;;;;6281965;28;20344;-54
2022/04/16 04:18:24;;;;;;;4.17;3.93;;;3.60;1.00;;;;;;6282697;28;20263;-57
2022/04/16 04:21:27;;;;;;;6.23;3.97;;;3.80;1.00;;;;;;6280905;28;20286;-56
2022/04/16 04:24:29;;;;;;;3.90;3.70;;;3.80;1.00;;;;;;6287114;28;20382;-55
2022/04/16 04:27:33;;;;;;;4.17;3.97;;;3.80;1.00;;;;;;6285559;28;20229;-54
2022/04/16 04:30:36;;;;;;;4.17;3.93;;;3.80;1.00;;;;;;6284417;28;20859;-56
2022/04/16 04:33:39;;;;;;;3.80;3.70;;;4.00;1.00;;;;;;6286849;28;20493;-56
2022/04/16 04:36:42;;;;;;;4.30;4.00;;;3.90;1.00;;;;;;6292877;28;20479;-57
2022/04/16 04:39:44;;;;;;;3.73;3.53;;;3.90;1.00;;;;;;6287052;28;20268;-57
2022/04/16 04:42:48;;;;;;;4.63;4.33;;;4.10;1.00;;;;;;6283763;28;20225;-56
2022/04/16 04:45:51;;;;;;;5.77;4.30;;;4.10;1.00;;;;;;6285788;28;20698;-55
2022/04/16 04:48:54;;;;;;;4.07;3.87;;;4.10;1.00;;;;;;6280756;28;20237;-56
2022/04/16 04:51:56;;;;;;;4.20;3.80;;;4.10;1.00;;;;;;6288330;28;20269;-56
2022/04/16 04:55:01;;;;;;;4.23;4.00;;;4.20;1.00;;;;;;6291703;28;20238;-57
2022/04/16 04:58:05;;;;;;;4.63;4.30;;;4.10;1.00;;;;;;6291303;28;20247;-56
2022/04/16 05:01:08;;;;;;;4.17;3.83;;;4.20;1.00;;;;;;6286172;28;20321;-56
2022/04/16 05:04:11;;;;;;;3.70;3.60;;;4.20;1.00;;;;;;6282046;28;20236;-55
2022/04/16 05:07:13;;;;;;;7.53;4.10;;;4.40;1.00;;;;;;6285720;28;20734;-55
2022/04/16 05:10:18;;;;;;;4.10;3.90;;;4.50;1.00;;;;;;6288360;28;20786;-56
2022/04/16 05:13:22;;;;;;;4.50;4.00;;;4.30;1.00;;;;;;6288044;28;20643;-56
2022/04/16 05:16:25;;;;;;;4.47;4.07;;;4.40;1.00;;;;;;6285517;28;20233;-56
2022/04/16 05:19:29;;;;;;;5.40;3.90;;;4.40;1.00;;;;;;6285010;28;20225;-56
2022/04/16 05:22:32;;;;;;;6.43;4.53;;;4.50;1.00;;;;;;6279614;28;20782;-57
2022/04/16 05:25:35;;;;;;;4.03;3.77;;;4.50;1.00;;;;;;6285470;28;20327;-57
2022/04/16 05:28:40;;;;;;;4.40;4.10;;;4.60;1.00;;;;;;6283639;28;20237;-58
2022/04/16 05:31:43;;;;;;;4.50;4.13;;;4.60;1.00;;;;;;6277602;28;20601;-57
2022/04/16 05:34:46;;;;;;;4.43;3.87;;;4.70;1.00;;;;;;6288695;28;20363;-55
2022/04/16 05:37:49;;;;;;;4.20;4.00;;;4.80;1.00;;;;;;6286295;28;20374;-57
2022/04/16 05:40:52;;;;;;;6.40;4.50;;;4.90;1.00;;;;;;6286932;28;20233;-57
2022/04/16 05:43:56;;;;;;;4.13;3.90;;;4.90;1.00;;;;;;6291401;28;20565;-57
2022/04/16 05:46:59;;;;;;;4.50;4.20;;;4.90;1.00;;;;;;6280880;28;20241;-56
2022/04/16 05:50:02;;;;;;;4.33;4.10;;;5.10;1.00;;;;;;6287845;28;20675;-56
2022/04/16 05:53:06;;;;;;;4.10;4.00;;;5.30;1.00;;;;;;6278049;28;20328;-56
2022/04/16 05:56:10;;;;;;;5.97;4.30;;;5.20;1.00;;;;;;6284801;28;20236;-55
2022/04/16 05:59:14;;;;;;;5.97;4.13;;;5.40;1.00;;;;;;6284229;28;20229;-56
2022/04/16 06:02:17;;;;;;;4.80;4.40;;;5.50;1.00;;;;;;6276311;28;20268;-56
2022/04/16 06:05:21;;;;;;;4.30;4.10;;;5.50;1.00;;;;;;6287316;28;20375;-56
2022/04/16 06:08:23;;;;;;;6.83;4.30;;;5.60;1.00;;;;;;6283153;28;20234;-56
2022/04/16 06:11:28;;;;;;;4.47;4.03;;;5.70;1.00;;;;;;6279707;28;20459;-57
2022/04/16 06:14:32;;;;;;;5.20;4.80;;;5.80;1.00;;;;;;6286065;28;20290;-56
2022/04/16 06:17:35;;;;;;;4.70;4.30;;;5.70;1.00;;;;;;6288750;28;20813;-56
2022/04/16 06:20:38;;;;;;;4.90;4.50;;;6.20;1.00;;;;;;6277658;28;20260;-57
2022/04/16 06:23:41;;;;;;;4.93;4.53;;;5.80;1.00;;;;;;6283255;28;20229;-55
2022/04/16 06:26:45;;;;;;;4.50;4.30;;;6.00;1.00;;;;;;6285491;28;20872;-58
2022/04/16 06:29:49;;;;;;;4.13;3.97;;;6.10;1.00;;;;;;6285995;28;20746;-55
2022/04/16 06:32:52;;;;;;;4.53;4.13;;;6.20;1.00;;;;;;6284035;28;20245;-57
2022/04/16 06:35:54;;;;;;;5.13;4.33;;;6.40;1.00;;;;;;6288496;28;20331;-57
2022/04/16 06:38:57;;;;;;;4.60;4.30;;;6.20;1.00;;;;;;6283506;28;20374;-56
2022/04/16 06:42:06;;;;;;;4.13;3.83;;;6.20;1.00;;;;;;6277375;28;20298;-55
2022/04/16 06:45:12;;;;;;;4.30;3.97;;;6.60;1.00;;;;;;6296557;28;20386;-56
2022/04/16 06:48:15;;;;;;;4.17;3.97;;;6.60;1.00;;;;;;6273954;28;20699;-56
2022/04/16 06:51:18;;;;;;;4.37;4.13;;;6.80;1.00;;;;;;6284296;28;20332;-57
2022/04/16 06:54:21;;;;;;;4.40;4.10;;;6.90;1.00;;;;;;6277690;28;20282;-56
2022/04/16 06:57:23;;;;;;;4.37;4.10;;;7.10;1.00;;;;;;6286536;28;20358;-55
2022/04/16 07:00:29;;;;;;;5.27;4.20;;;7.20;1.00;;;;;;6287832;28;20278;-55
2022/04/16 07:03:32;;;;;;;4.73;4.30;;;7.20;1.00;;;;;;6288370;28;20274;-56
2022/04/16 07:06:35;;;;;;;4.83;4.37;;;7.20;1.00;;;;;;6283687;28;20324;-58
2022/04/16 07:09:39;;;;;;;5.43;4.87;;;7.30;1.00;;;;;;6290739;28;20232;-57
2022/04/16 07:12:41;;;;;;;5.87;5.37;;;7.40;1.00;;;;;;6284521;28;20317;-56
2022/04/16 07:15:45;;;;;;;5.70;5.23;;;7.60;1.00;;;;;;6284472;28;20280;-56
2022/04/16 07:18:48;;;;;;;6.87;6.33;;;7.70;1.00;;;;;;6282447;28;20256;-56
2022/04/16 07:21:51;;;;;;;7.33;6.77;;;7.90;1.00;;;;;;6281594;28;20252;-56
2022/04/16 07:24:54;;;;;;;7.80;7.20;;;8.10;1.00;;;;;;6285876;28;20297;-56
2022/04/16 07:27:56;;;;;;;8.10;7.50;;;8.30;1.00;;;;;;6282522;28;20924;-56
2022/04/16 07:31:00;;;;;;;8.50;7.90;;;8.40;1.00;;;;;;6278053;28;20237;-56
2022/04/16 07:34:03;;;;;;;8.20;7.60;;;8.60;1.00;;;;;;6281921;28;20848;-55
2022/04/16 07:37:06;;;;;;;7.23;6.93;;;8.60;1.00;;;;;;6281822;28;20667;-56
2022/04/16 07:40:10;;;;;;;7.27;6.77;;;8.60;1.00;;;;;;6273307;28;20279;-56
2022/04/16 07:43:14;;;;;;;5.80;5.60;;;8.70;1.00;;;;;;6282558;28;20336;-57
2022/04/16 07:46:21;;;;;;;6.27;5.83;;;8.60;1.00;;;;;;6284344;28;20335;-57
2022/04/16 07:49:24;;;;;;;5.43;5.13;;;8.60;1.00;;;;;;6281483;28;20230;-55
2022/04/16 07:52:28;;;;;;;5.30;5.00;;;8.50;1.00;;;;;;6282974;28;20433;-56
2022/04/16 07:55:32;;;;;;;5.30;4.80;;;8.50;1.00;;;;;;6280322;28;20316;-55
2022/04/16 07:58:34;;;;;;;4.33;4.23;;;8.40;99.90;;;;;;6285424;28;20706;-56
2022/04/16 08:01:39;;;;;;;4.20;3.90;;;8.60;99.90;;;;;;6272644;28;20265;-58
2022/04/16 08:04:42;;;;;;;3.60;3.40;;;8.70;99.90;;;;;;6279918;28;20229;-56
2022/04/16 08:07:45;;;;;;;3.60;3.40;;;8.70;99.90;;;;;;6282041;28;20235;-56
2022/04/16 08:10:51;;;;;;;2.80;2.80;;;8.80;99.90;;;;;;6282743;28;20255;-56
2022/04/16 08:13:54;;;;;;;3.10;2.80;;;8.90;99.90;;;;;;6290073;28;20570;-55
2022/04/16 08:16:58;;;;;;;3.43;3.23;;;9.00;99.90;;;;;;6282331;28;20404;-56
2022/04/16 08:20:01;;;;;;;3.30;3.20;;;9.00;99.90;;;;;;6267961;28;20226;-56
2022/04/16 08:23:06;;;;;;;3.57;3.37;;;9.00;99.90;;;;;;6283454;28;20252;-57
2022/04/16 08:26:09;;;;;;;3.17;3.00;;;8.90;99.90;;;;;;6282127;28;20860;-59
2022/04/16 08:29:11;;;;;;;3.63;3.40;;;8.90;99.90;;;;;;6285752;28;20237;-57
2022/04/16 08:32:15;;;;;;;3.20;3.10;;;9.00;99.90;;;;;;6289221;28;20370;-57
2022/04/16 08:35:26;;;;;;;3.63;3.07;;;9.00;99.90;;;;;;6282527;28;20237;-57
2022/04/16 08:38:29;;;;;;;3.43;3.20;;;9.10;99.90;;;;;;6280829;28;20353;-58
2022/04/16 08:41:33;;;;;;;4.03;3.37;;;9.10;99.90;;;;;;6283960;28;20312;-57
2022/04/16 08:44:39;;;;;;;2.90;2.90;;;9.30;99.90;;;;;;6281228;28;20237;-57
2022/04/16 08:47:44;;;;;;;3.23;3.13;;;9.30;99.90;;;;;;6275937;28;20310;-56
2022/04/16 08:50:47;;;;;;;3.00;2.90;;;9.40;99.90;;;;;;6281486;28;20329;-57
2022/04/16 08:53:50;;;;;;;2.80;2.70;;;9.50;99.90;;;;;;6277300;28;20305;-57
2022/04/16 08:56:53;;;;;;;3.30;3.20;;;9.50;99.90;;;;;;6274392;28;20386;-56
2022/04/16 08:59:57;;;;;;;2.93;2.83;;;9.50;99.90;;;;;;6281879;28;20337;-56
2022/04/16 09:03:03;;;;;;;2.97;2.97;;;9.40;99.90;;;;;;6270957;28;20312;-57
2022/04/16 09:06:07;;;;;;;3.00;2.90;;;9.60;99.90;;;;;;6283586;28;20383;-56
2022/04/16 09:09:11;;;;;;;2.80;2.70;;;9.80;99.90;;;;;;6280495;28;20336;-56
2022/04/16 09:12:18;;;;;;;3.00;3.00;;;10.00;99.90;;;;;;6286362;28;20617;-57
2022/04/16 09:15:22;;;;;;;3.10;3.00;;;10.10;99.90;;;;;;6284436;28;20313;-57
2022/04/16 09:18:27;;;;;;;3.10;3.00;;;10.30;99.90;;;;;;6290533;28;20721;-57
2022/04/16 09:21:29;;;;;;;2.93;2.90;;;10.40;99.90;;;;;;6289486;28;20225;-57
2022/04/16 09:24:45;;;;;;;2.83;2.83;;;10.50;99.90;;;;;;6273156;28;20229;-56
2022/04/16 09:27:50;;;;;;;3.20;3.10;;;10.60;99.90;;;;;;6283589;28;20248;-56
2022/04/16 09:30:55;;;;;;;2.67;2.60;;;10.70;99.90;;;;;;6282617;28;20275;-56
2022/04/16 09:33:59;;;;;;;3.03;3.00;;;10.50;99.90;;;;;;6281830;28;20504;-58
2022/04/16 09:37:12;;;;;;;2.90;2.80;;;10.60;99.90;;;;;;6285141;28;20925;-58
2022/04/16 09:40:17;;;;;;;3.00;2.90;;;10.80;99.90;;;;;;6279676;28;20593;-56
2022/04/16 09:43:19;;;;;;;2.80;2.80;;;10.70;99.90;;;;;;6284987;28;20936;-56
2022/04/16 09:46:26;;;;;;;2.87;2.77;;;10.90;99.90;;;;;;6276875;28;20312;-57
2022/04/16 09:49:33;;;;;;;2.70;2.50;;;11.00;99.90;;;;;;6287567;28;20305;-56
2022/04/16 09:52:37;;;;;;;3.23;2.93;;;11.10;99.90;;;;;;6293637;28;20307;-57
2022/04/16 09:55:41;;;;;;;2.67;2.67;;;11.20;99.90;;;;;;6283584;28;20239;-58
2022/04/16 09:58:51;;;;;;;3.13;2.97;;;11.30;99.90;;;;;;6286810;28;20789;-58
2022/04/16 10:01:54;;;;;;;3.50;3.20;;;11.40;99.90;;;;;;6281332;28;20310;-56
2022/04/16 10:05:00;;;;;;;3.10;2.97;;;11.50;99.90;;;;;;6284757;28;20738;-56
2022/04/16 10:08:04;;;;;;;3.10;2.90;;;11.60;99.90;;;;;;6282098;28;20237;-56
2022/04/16 10:11:08;;;;;;;3.00;2.90;;;11.70;99.90;;;;;;6283066;28;20239;-60
2022/04/16 10:14:19;;;;;;;2.93;2.83;;;11.80;99.90;;;;;;6284726;28;20247;-57
2022/04/16 10:17:28;;;;;;;3.00;2.73;;;11.90;99.90;;;;;;6282719;28;20396;-58
2022/04/16 10:20:32;;;;;;;2.83;2.73;;;11.90;99.90;;;;;;6286207;28;20383;-57
2022/04/16 10:23:39;;;;;;;3.13;3.03;;;12.10;99.90;;;;;;6284127;28;20282;-57
2022/04/16 10:26:43;;;;;;;3.80;2.90;;;12.00;99.90;;;;;;6280868;28;20333;-56
2022/04/16 10:29:49;;;;;;;3.10;3.00;;;12.10;99.90;;;;;;6280534;28;20408;-57
2022/04/16 10:32:52;;;;;;;3.23;3.13;;;12.10;99.90;;;;;;6281271;28;20279;-57
2022/04/16 10:36:03;;;;;;;3.00;2.90;;;12.10;99.90;;;;;;6268282;28;20241;-57
2022/04/16 10:39:16;;;;;;;2.70;2.70;;;12.30;99.90;;;;;;6283778;28;20398;-57
2022/04/16 10:42:29;;;;;;;2.53;2.53;;;12.40;99.90;;;;;;6287350;28;20374;-56
2022/04/16 10:45:57;;;;;;;2.83;2.73;;;12.50;99.90;;;;;;6278409;28;20241;-58
2022/04/16 10:49:07;;;;;;;2.60;2.50;;;12.70;99.90;;;;;;6284169;28;20678;-57
2022/04/16 10:52:20;;;;;;;2.60;2.50;;;12.80;99.90;;;;;;6283875;28;20324;-58
2022/04/16 10:55:30;;;;;;;2.40;2.40;;;12.80;99.90;;;;;;6288239;28;20257;-57
2022/04/16 10:58:33;;;;;;;2.73;2.63;;;12.60;99.90;;;;;;6282727;28;20252;-57
2022/04/16 11:01:36;;;;;;;2.67;2.60;;;12.50;99.90;;;;;;6279998;28;20264;-57
2022/04/16 11:04:39;;;;;;;2.43;2.33;;;12.50;99.90;;;;;;6290173;28;20286;-56
2022/04/16 11:07:43;;;;;;;2.53;2.43;;;12.60;99.90;;;;;;6285475;28;20229;-57
2022/04/16 11:10:46;;;;;;;2.90;2.70;;;12.70;99.90;;;;;;6273476;28;20245;-56
2022/04/16 11:13:49;;;;;;;2.20;2.20;;;12.80;99.90;;;;;;6281326;28;20378;-57
2022/04/16 11:16:52;;;;;;;2.53;2.03;;;12.90;99.90;;;;;;6279219;28;20234;-58
2022/04/16 11:19:59;;;;;;;2.03;1.93;;;13.10;99.90;;;;;;6281631;28;20318;-57
2022/04/16 11:23:10;;;;;;;2.40;2.30;;;13.20;99.90;;;;;;6288639;28;20324;-58
2022/04/16 11:36:25;;;;;;;2.13;2.10;;;13.50;99.90;;;;;;6277214;28;20245;-57
2022/04/16 11:39:31;;;;;;;2.50;2.40;;;13.60;99.90;;;;;;6281466;28;20326;-57
2022/04/16 11:42:34;;;;;;;2.20;2.20;;;13.70;99.90;;;;;;6285023;28;20331;-57
2022/04/16 11:45:44;;;;;;;2.00;2.00;;;13.80;99.90;;;;;;6285410;28;20326;-57
2022/04/16 11:48:49;;;;;;;2.23;2.13;;;13.80;99.90;;;;;;6279955;28;20611;-56
2022/04/16 11:51:52;;;;;;;2.40;2.30;;;13.90;99.90;;;;;;6280679;28;20278;-57
2022/04/16 11:55:04;;;;;;;2.53;2.00;;;14.00;99.90;;;;;;6287831;28;20279;-57
2022/04/16 11:58:08;;;;;;;2.10;2.00;;;14.10;99.90;;;;;;6278568;28;20776;-58
2022/04/16 12:01:11;;;;;;;2.00;2.00;;;14.20;99.90;;;;;;6281095;28;20320;-57
2022/04/16 12:04:13;;;;;;;2.10;2.00;;;14.40;99.90;;;;;;6282982;28;20233;-58
2022/04/16 12:07:18;;;;;;;2.30;2.20;;;14.60;99.90;;;;;;6283249;28;20501;-56
2022/04/16 12:10:25;;;;;;;1.90;1.80;;;14.60;99.90;;;;;;6283730;28;20244;-57
2022/04/16 12:13:34;;;;;;;2.00;2.00;;;14.60;99.90;;;;;;6273287;28;20241;-56
2022/04/16 12:16:37;;;;;;;2.87;2.77;;;14.70;99.90;;;;;;6280183;28;20236;-58
2022/04/16 12:19:42;;;;;;;1.83;1.80;;;14.40;99.90;;;;;;6281910;28;20237;-57
2022/04/16 12:22:52;;;;;;;2.13;1.93;;;14.40;99.90;;;;;;6281667;28;20316;-58
2022/04/16 12:26:09;;;;;;;2.00;1.90;;;14.50;99.90;;;;;;6273524;28;20868;-57
2022/04/16 12:29:12;;;;;;;1.80;1.80;;;14.50;99.90;;;;;;6286665;28;20518;-57
2022/04/16 12:32:24;;;;;;;2.23;2.10;;;14.40;99.90;;;;;;6284795;28;20909;-57
2022/04/16 12:35:27;;;;;;;2.20;2.10;;;14.40;99.90;;;;;;6281874;28;20241;-56
2022/04/16 12:38:30;;;;;;;2.00;2.00;;;14.10;99.90;;;;;;6283934;28;20320;-57
2022/04/16 12:41:37;;;;;;;2.83;1.90;;;14.20;99.90;;;;;;6288457;28;20645;-57
2022/04/16 12:44:40;;;;;;;2.17;2.07;;;14.30;99.90;;;;;;6285494;28;20394;-57
2022/04/16 12:47:43;;;;;;;2.23;2.13;;;14.30;99.90;;;;;;6283241;28;20374;-58
2022/04/16 12:50:46;;;;;;;2.10;2.10;;;14.30;99.90;;;;;;6293351;28;20276;-57
2022/04/16 12:53:48;;;;;;;2.83;1.93;;;14.40;99.90;;;;;;6285617;28;20511;-56
2022/04/16 12:56:53;;;;;;;2.13;2.03;;;14.40;99.90;;;;;;6284048;28;20379;-56
2022/04/16 12:59:55;;;;;;;1.90;1.90;;;14.40;99.90;;;;;;6284692;28;20746;-56
2022/04/16 13:02:59;;;;;;;2.00;1.97;;;14.50;99.90;;;;;;6288441;28;20351;-57
2022/04/16 13:06:03;;;;;;;2.00;1.97;;;14.50;99.90;;;;;;6294331;28;20240;-56
2022/04/16 13:09:05;;;;;;;1.60;1.60;;;14.50;99.90;;;;;;6285732;28;20225;-57
2022/04/16 13:12:10;;;;;;;2.03;2.03;;;14.60;99.90;;;;;;6284562;28;20224;-57
2022/04/16 13:15:13;;;;;;;2.13;2.03;;;14.70;99.90;;;;;;6281995;28;20713;-57
2022/04/16 13:18:16;;;;;;;1.80;1.80;;;14.80;99.90;;;;;;6284892;28;20320;-57
2022/04/16 13:21:20;;;;;;;1.80;1.80;;;14.90;99.90;;;;;;6281002;28;20293;-56
2022/04/16 13:24:23;;;;;;;2.03;1.93;;;14.90;99.90;;;;;;6284952;28;20319;-57
2022/04/16 13:27:27;;;;;;;1.70;1.70;;;14.90;99.90;;;;;;6289234;28;20229;-57
2022/04/16 13:30:30;;;;;;;2.10;2.07;;;15.00;99.90;;;;;;6281872;28;20780;-58
2022/04/16 13:33:33;;;;;;;1.90;1.90;;;14.80;99.90;;;;;;6277328;28;20312;-58
2022/04/16 13:36:36;;;;;;;1.83;1.83;;;14.70;99.90;;;;;;6284498;28;20536;-56
2022/04/16 13:43:01;;;;;;;1.77;1.77;;;14.70;99.90;;;;;;6287369;28;20322;-57
2022/04/16 13:46:03;;;;;;;2.30;2.10;;;14.70;99.90;;;;;;6290613;28;20813;-56
2022/04/16 13:49:06;;;;;;;1.77;1.77;;;14.70;99.90;;;;;;6277327;28;20237;-57
2022/04/16 13:52:09;;;;;;;2.03;1.97;;;14.80;99.90;;;;;;6284558;28;20271;-57
2022/04/16 13:55:12;;;;;;;2.00;2.00;;;14.90;99.90;;;;;;6286712;28;20440;-57
2022/04/16 13:58:16;;;;;;;1.70;1.70;;;14.90;99.90;;;;;;6285037;28;20267;-57
2022/04/16 14:01:20;;;;;;;1.73;1.73;;;14.90;99.90;;;;;;6289643;28;20295;-57
2022/04/16 14:04:23;;;;;;;1.80;1.80;;;15.00;99.90;;;;;;6284364;28;20615;-57
2022/04/16 14:07:26;;;;;;;2.03;1.90;;;15.00;99.90;;;;;;6284835;28;20256;-58
2022/04/16 14:10:29;;;;;;;2.17;2.00;;;15.00;99.90;;;;;;6283630;28;20371;-57
2022/04/16 14:13:33;;;;;;;2.17;1.90;;;15.00;99.90;;;;;;6283694;28;20298;-57
2022/04/16 14:16:36;;;;;;;1.80;1.70;;;15.00;99.90;;;;;;6284183;28;20245;-57
2022/04/16 14:19:39;;;;;;;2.00;2.00;;;15.10;99.90;;;;;;6289783;28;20658;-57
2022/04/16 14:22:42;;;;;;;1.87;1.83;;;15.00;99.90;;;;;;6287039;28;20235;-58
2022/04/16 14:25:45;;;;;;;1.60;1.60;;;15.00;99.90;;;;;;6290977;28;20237;-56
2022/04/16 14:28:49;;;;;;;1.60;1.60;;;15.10;99.90;;;;;;6283050;28;20474;-57
2022/04/16 14:31:52;;;;;;;1.80;1.80;;;15.10;99.90;;;;;;6284094;28;20259;-57
2022/04/16 14:34:55;;;;;;;1.83;1.80;;;15.10;99.90;;;;;;6279500;28;20316;-58
2022/04/16 14:37:57;;;;;;;2.00;1.90;;;15.20;99.90;;;;;;6281035;28;20282;-57
2022/04/16 14:41:09;;;;;;;1.70;1.70;;;15.10;99.90;;;;;;6286894;28;20439;-57
2022/04/16 14:44:14;;;;;;;1.70;1.70;;;15.20;99.90;;;;;;6275041;28;20359;-56
2022/04/16 14:47:18;;;;;;;1.80;1.70;;;15.10;99.90;;;;;;6276959;28;20455;-58
2022/04/16 14:50:20;;;;;;;1.77;1.77;;;15.20;99.90;;;;;;6289144;28;20309;-57
2022/04/16 14:53:23;;;;;;;1.80;1.70;;;15.40;99.90;;;;;;6279956;28;20263;-57
2022/04/16 14:56:26;;;;;;;1.63;1.63;;;15.30;99.90;;;;;;6283195;28;20343;-57
2022/04/16 14:59:30;;;;;;;1.80;1.80;;;15.40;99.90;;;;;;6283022;28;20342;-58
2022/04/16 15:02:33;;;;;;;1.63;1.63;;;15.30;99.90;;;;;;6286966;28;20705;-58
2022/04/16 15:05:36;;;;;;;1.90;1.80;;;15.20;99.90;;;;;;6276378;28;20229;-57
2022/04/16 15:08:39;;;;;;;2.07;1.97;;;15.50;99.90;;;;;;6287483;28;20617;-58
2022/04/16 15:11:42;;;;;;;3.70;1.60;;;15.60;99.90;;;;;;6277894;28;20260;-56
2022/04/16 15:14:46;;;;;;;1.77;1.77;;;15.70;99.90;;;;;;6285891;28;20715;-57
2022/04/16 15:17:49;;;;;;;1.90;1.90;;;15.50;99.90;;;;;;6282834;28;20256;-57
2022/04/16 15:20:52;;;;;;;1.70;1.70;;;15.40;99.90;;;;;;6280963;28;20316;-57
2022/04/16 15:23:56;;;;;;;1.57;1.57;;;15.30;99.90;;;;;;6282253;28;20334;-58
2022/04/16 15:26:59;;;;;;;1.73;1.73;;;15.10;99.90;;;;;;6283343;28;20752;-58
2022/04/16 15:30:04;;;;;;;1.97;1.97;;;14.90;99.90;;;;;;6280544;28;20332;-57
2022/04/16 15:33:07;;;;;;;1.90;1.80;;;14.80;99.90;;;;;;6276622;28;20249;-57
2022/04/16 15:36:09;;;;;;;1.70;1.70;;;14.80;99.90;;;;;;6283777;28;20264;-58
2022/04/16 15:39:13;;;;;;;1.93;1.83;;;14.70;99.90;;;;;;6280026;28;20234;-57
2022/04/16 15:42:15;;;;;;;1.83;1.83;;;14.80;99.90;;;;;;6282695;28;20233;-56
2022/04/16 15:45:20;;;;;;;1.70;1.70;;;14.80;99.90;;;;;;6283279;28;20713;-57
2022/04/16 15:48:23;;;;;;;1.97;1.80;;;14.90;99.90;;;;;;6278879;28;20383;-57
2022/04/16 15:51:27;;;;;;;2.03;2.00;;;15.00;99.90;;;;;;6286247;28;20316;-56
2022/04/16 15:54:29;;;;;;;2.10;2.10;;;14.90;99.90;;;;;;6291803;28;20744;-57
2022/04/16 15:57:33;;;;;;;2.20;2.10;;;14.70;99.90;;;;;;6273828;28;20233;-56
2022/04/16 16:00:37;;;;;;;2.07;1.93;;;14.40;99.90;;;;;;6267180;28;20956;-57
2022/04/16 16:03:40;;;;;;;1.90;1.90;;;14.20;99.90;;;;;;6283543;28;20514;-57
2022/04/16 16:06:43;;;;;;;2.00;2.00;;;14.00;99.90;;;;;;6282476;28;20256;-60
2022/04/16 16:09:45;;;;;;;2.00;2.00;;;13.80;99.90;;;;;;6281827;28;20328;-57
2022/04/16 16:12:48;;;;;;;3.83;1.90;;;13.60;99.90;;;;;;6282315;28;20336;-57
2022/04/16 16:15:52;;;;;;;1.80;1.80;;;13.50;99.90;;;;;;6290989;28;20382;-57
2022/04/16 16:18:55;;;;;;;2.10;2.10;;;13.40;99.90;;;;;;6290458;28;20359;-57
2022/04/16 16:21:58;;;;;;;1.90;1.90;;;13.20;99.90;;;;;;6295694;28;20230;-57
2022/04/16 16:25:01;;;;;;;2.00;2.00;;;13.10;99.90;;;;;;6291281;28;20313;-58
2022/04/16 16:28:04;;;;;;;2.10;2.00;;;13.00;99.90;;;;;;6287009;28;20264;-57
2022/04/16 16:31:08;;;;;;;2.03;2.03;;;12.90;99.90;;;;;;6283541;28;20312;-57
2022/04/16 16:34:11;;;;;;;2.37;2.30;;;12.70;99.90;;;;;;6286613;28;20241;-57